OAL657 LGAV-LGSK
Flight info
| Callsign | OAL657 |
|---|---|
| Flight time | 0h 29m |
| Altitude | 12000 |
| Route | ROPOX M749 SIGFO |
| Aircraft | AT76/M-SDFGIRY/S |
Departure
| Time | 2026-04-26 10:26 |
|---|---|
| Airport | Athens Eleftherios Venizelos International Airport (LGAV) |
Arrival
| Time | 2026-04-26 10:56 |
|---|---|
| Airport | Skiathos Island National Airport (LGSK) |
| Time | Latitude | Longitude | Altitude | Speed | Heading |
|---|---|---|---|---|---|
| 2026-04-26 10:07 | 37.94418 | 23.95402 | 297 ft | 0 kts | 218° |
| 2026-04-26 10:17 | 37.94417 | 23.95401 | 297 ft | 0 kts | 218° |
| 2026-04-26 10:17 | 37.94398 | 23.95400 | 300 ft | 4 kts | 158° |
| 2026-04-26 10:17 | 37.94372 | 23.95431 | 297 ft | 6 kts | 128° |
| 2026-04-26 10:18 | 37.94345 | 23.95477 | 298 ft | 7 kts | 125° |
| 2026-04-26 10:18 | 37.94316 | 23.95530 | 299 ft | 8 kts | 124° |
| 2026-04-26 10:18 | 37.94286 | 23.95586 | 299 ft | 8 kts | 127° |
| 2026-04-26 10:18 | 37.94248 | 23.95643 | 297 ft | 9 kts | 133° |
| 2026-04-26 10:19 | 37.94190 | 23.95653 | 296 ft | 10 kts | 211° |
| 2026-04-26 10:19 | 37.94120 | 23.95606 | 295 ft | 12 kts | 185° |
| 2026-04-26 10:19 | 37.94040 | 23.95647 | 294 ft | 13 kts | 182° |
| 2026-04-26 10:19 | 37.93956 | 23.95579 | 296 ft | 15 kts | 220° |
| 2026-04-26 10:20 | 37.93870 | 23.95494 | 296 ft | 16 kts | 216° |
| 2026-04-26 10:20 | 37.93810 | 23.95440 | 295 ft | 16 kts | 217° |
| 2026-04-26 10:20 | 37.93694 | 23.95324 | 296 ft | 16 kts | 216° |
| 2026-04-26 10:20 | 37.93606 | 23.95243 | 295 ft | 16 kts | 216° |
| 2026-04-26 10:21 | 37.93516 | 23.95163 | 296 ft | 16 kts | 214° |
| 2026-04-26 10:21 | 37.93430 | 23.95080 | 295 ft | 16 kts | 217° |
| 2026-04-26 10:21 | 37.93343 | 23.94997 | 295 ft | 16 kts | 219° |
| 2026-04-26 10:21 | 37.93258 | 23.94913 | 297 ft | 16 kts | 217° |
| 2026-04-26 10:22 | 37.93171 | 23.94831 | 297 ft | 16 kts | 216° |
| 2026-04-26 10:22 | 37.93084 | 23.94749 | 296 ft | 16 kts | 217° |
| 2026-04-26 10:22 | 37.92996 | 23.94666 | 299 ft | 16 kts | 216° |
| 2026-04-26 10:22 | 37.92912 | 23.94583 | 297 ft | 16 kts | 219° |
| 2026-04-26 10:23 | 37.92826 | 23.94498 | 299 ft | 15 kts | 216° |
| 2026-04-26 10:23 | 37.92741 | 23.94420 | 299 ft | 15 kts | 216° |
| 2026-04-26 10:23 | 37.92655 | 23.94339 | 299 ft | 15 kts | 217° |
| 2026-04-26 10:23 | 37.92567 | 23.94289 | 300 ft | 8 kts | 162° |
| 2026-04-26 10:24 | 37.92530 | 23.94333 | 302 ft | 6 kts | 126° |
| 2026-04-26 10:24 | 37.92509 | 23.94370 | 304 ft | 5 kts | 125° |
| 2026-04-26 10:24 | 37.92494 | 23.94406 | 305 ft | 5 kts | 105° |
| 2026-04-26 10:24 | 37.92502 | 23.94463 | 304 ft | 10 kts | 49° |
| 2026-04-26 10:25 | 37.92510 | 23.94470 | 305 ft | 0 kts | 32° |
| 2026-04-26 10:25 | 37.92526 | 23.94484 | 304 ft | 19 kts | 35° |
| 2026-04-26 10:25 | 37.92805 | 23.94753 | 296 ft | 81 kts | 37° |
| 2026-04-26 10:26 | 37.93402 | 23.95329 | 284 ft | 131 kts | 38° |
| 2026-04-26 10:26 | 37.94207 | 23.96077 | 500 ft | 148 kts | 34° |
| 2026-04-26 10:26 | 37.95108 | 23.96811 | 847 ft | 158 kts | 33° |
| 2026-04-26 10:26 | 37.96063 | 23.97597 | 1247 ft | 169 kts | 34° |
| 2026-04-26 10:27 | 37.97009 | 23.98503 | 1675 ft | 178 kts | 35° |
| 2026-04-26 10:27 | 37.97960 | 23.99473 | 2287 ft | 173 kts | 39° |
| 2026-04-26 10:27 | 37.98923 | 24.00398 | 2865 ft | 174 kts | 34° |
| 2026-04-26 10:27 | 37.99908 | 24.01291 | 3468 ft | 175 kts | 33° |
| 2026-04-26 10:28 | 38.00907 | 24.02186 | 3885 ft | 177 kts | 33° |
| 2026-04-26 10:28 | 38.01919 | 24.03094 | 4245 ft | 179 kts | 32° |
| 2026-04-26 10:28 | 38.03001 | 24.03870 | 4567 ft | 179 kts | 8° |
| 2026-04-26 10:28 | 38.04159 | 24.03517 | 4897 ft | 176 kts | 319° |
| 2026-04-26 10:29 | 38.04702 | 24.02179 | 5211 ft | 173 kts | 279° |
| 2026-04-26 10:29 | 38.04918 | 24.00661 | 5476 ft | 176 kts | 287° |
| 2026-04-26 10:29 | 38.05300 | 23.99172 | 5816 ft | 177 kts | 283° |
| 2026-04-26 10:29 | 38.05832 | 23.97776 | 6091 ft | 180 kts | 309° |
| 2026-04-26 10:30 | 38.06456 | 23.96421 | 6375 ft | 178 kts | 289° |
| 2026-04-26 10:30 | 38.06910 | 23.94934 | 6636 ft | 182 kts | 290° |
| 2026-04-26 10:30 | 38.07579 | 23.93574 | 6853 ft | 183 kts | 305° |
| 2026-04-26 10:30 | 38.08203 | 23.92174 | 7177 ft | 182 kts | 296° |
| 2026-04-26 10:31 | 38.08902 | 23.90818 | 7431 ft | 185 kts | 302° |
| 2026-04-26 10:31 | 38.09566 | 23.89407 | 7691 ft | 186 kts | 302° |
| 2026-04-26 10:31 | 38.10348 | 23.88085 | 7993 ft | 187 kts | 303° |
| 2026-04-26 10:31 | 38.11065 | 23.86694 | 8281 ft | 188 kts | 303° |
| 2026-04-26 10:32 | 38.11869 | 23.85376 | 8624 ft | 188 kts | 304° |
| 2026-04-26 10:32 | 38.12615 | 23.84007 | 8922 ft | 188 kts | 303° |
| 2026-04-26 10:32 | 38.13296 | 23.82840 | 9171 ft | 190 kts | 306° |
| 2026-04-26 10:33 | 38.13967 | 23.81671 | 9432 ft | 192 kts | 304° |
| 2026-04-26 10:33 | 38.14747 | 23.80285 | 9693 ft | 193 kts | 307° |
| 2026-04-26 10:33 | 38.15595 | 23.78948 | 9942 ft | 195 kts | 306° |
| 2026-04-26 10:33 | 38.16398 | 23.77551 | 10174 ft | 197 kts | 305° |
| 2026-04-26 10:34 | 38.17342 | 23.76374 | 10400 ft | 195 kts | 337° |
| 2026-04-26 10:34 | 38.18672 | 23.75975 | 10647 ft | 198 kts | 351° |
| 2026-04-26 10:34 | 38.20044 | 23.75789 | 10919 ft | 198 kts | 354° |
| 2026-04-26 10:34 | 38.21422 | 23.75649 | 11175 ft | 198 kts | 354° |
| 2026-04-26 10:35 | 38.22786 | 23.75504 | 11474 ft | 198 kts | 354° |
| 2026-04-26 10:35 | 38.24153 | 23.75348 | 11780 ft | 196 kts | 354° |
| 2026-04-26 10:35 | 38.25531 | 23.75174 | 11938 ft | 203 kts | 353° |
| 2026-04-26 10:35 | 38.26974 | 23.74976 | 11985 ft | 213 kts | 353° |
| 2026-04-26 10:36 | 38.28482 | 23.74759 | 12017 ft | 222 kts | 353° |
| 2026-04-26 10:36 | 38.30045 | 23.74534 | 12029 ft | 229 kts | 353° |
| 2026-04-26 10:36 | 38.31654 | 23.74303 | 12032 ft | 236 kts | 353° |
| 2026-04-26 10:36 | 38.33302 | 23.74064 | 12044 ft | 240 kts | 353° |
| 2026-04-26 10:37 | 38.34976 | 23.73818 | 12033 ft | 244 kts | 353° |
| 2026-04-26 10:37 | 38.36674 | 23.73574 | 12037 ft | 247 kts | 353° |
| 2026-04-26 10:37 | 38.38387 | 23.73325 | 12039 ft | 249 kts | 353° |
| 2026-04-26 10:37 | 38.40114 | 23.73075 | 12039 ft | 250 kts | 353° |
| 2026-04-26 10:38 | 38.41850 | 23.72822 | 12040 ft | 252 kts | 353° |
| 2026-04-26 10:38 | 38.43594 | 23.72570 | 12042 ft | 253 kts | 353° |
| 2026-04-26 10:38 | 38.45348 | 23.72315 | 12047 ft | 254 kts | 353° |
| 2026-04-26 10:38 | 38.47114 | 23.72058 | 12041 ft | 256 kts | 353° |
| 2026-04-26 10:39 | 38.48881 | 23.71800 | 12048 ft | 257 kts | 353° |
| 2026-04-26 10:39 | 38.50660 | 23.71542 | 12039 ft | 258 kts | 353° |
| 2026-04-26 10:39 | 38.52444 | 23.71282 | 12047 ft | 259 kts | 353° |
| 2026-04-26 10:39 | 38.54193 | 23.71028 | 12048 ft | 259 kts | 353° |
| 2026-04-26 10:40 | 38.55379 | 23.70851 | 12044 ft | 260 kts | 353° |
| 2026-04-26 10:40 | 38.57173 | 23.70590 | 12041 ft | 260 kts | 353° |
| 2026-04-26 10:40 | 38.58967 | 23.70330 | 12043 ft | 259 kts | 353° |
| 2026-04-26 10:40 | 38.60761 | 23.70069 | 12041 ft | 259 kts | 353° |
| 2026-04-26 10:41 | 38.62552 | 23.69807 | 12049 ft | 259 kts | 353° |
| 2026-04-26 10:41 | 38.64348 | 23.69543 | 12039 ft | 259 kts | 353° |
| 2026-04-26 10:41 | 38.66137 | 23.69284 | 12046 ft | 259 kts | 352° |
| 2026-04-26 10:41 | 38.67955 | 23.69014 | 11766 ft | 269 kts | 352° |
| 2026-04-26 10:42 | 38.69829 | 23.68743 | 11528 ft | 272 kts | 352° |
| 2026-04-26 10:42 | 38.71710 | 23.68466 | 11299 ft | 272 kts | 352° |
| 2026-04-26 10:42 | 38.73594 | 23.68187 | 11088 ft | 272 kts | 352° |
| 2026-04-26 10:42 | 38.75476 | 23.67916 | 10876 ft | 272 kts | 352° |
| 2026-04-26 10:43 | 38.77353 | 23.67634 | 10652 ft | 271 kts | 352° |
| 2026-04-26 10:43 | 38.79222 | 23.67362 | 10416 ft | 270 kts | 352° |
| 2026-04-26 10:43 | 38.81089 | 23.67082 | 10149 ft | 270 kts | 352° |
| 2026-04-26 10:43 | 38.82960 | 23.66807 | 9890 ft | 270 kts | 352° |
| 2026-04-26 10:44 | 38.84826 | 23.66538 | 9634 ft | 269 kts | 352° |
| 2026-04-26 10:44 | 38.86680 | 23.66263 | 9387 ft | 267 kts | 352° |
| 2026-04-26 10:44 | 38.88524 | 23.65988 | 9143 ft | 267 kts | 352° |
| 2026-04-26 10:44 | 38.90366 | 23.65720 | 8903 ft | 265 kts | 352° |
| 2026-04-26 10:45 | 38.92200 | 23.65456 | 8672 ft | 264 kts | 352° |
| 2026-04-26 10:45 | 38.94020 | 23.65193 | 8448 ft | 263 kts | 352° |
| 2026-04-26 10:45 | 38.95832 | 23.64925 | 8231 ft | 262 kts | 352° |
| 2026-04-26 10:45 | 38.97618 | 23.64654 | 8019 ft | 261 kts | 352° |
| 2026-04-26 10:46 | 38.99421 | 23.64386 | 7710 ft | 262 kts | 352° |
| 2026-04-26 10:46 | 39.01219 | 23.64124 | 7343 ft | 256 kts | 352° |
| 2026-04-26 10:46 | 39.02968 | 23.63866 | 6989 ft | 249 kts | 352° |
| 2026-04-26 10:46 | 39.04670 | 23.63613 | 6645 ft | 244 kts | 353° |
| 2026-04-26 10:47 | 39.06336 | 23.63366 | 6304 ft | 239 kts | 353° |
| 2026-04-26 10:47 | 39.07973 | 23.63124 | 5952 ft | 235 kts | 353° |
| 2026-04-26 10:47 | 39.09582 | 23.62885 | 5616 ft | 231 kts | 353° |
| 2026-04-26 10:47 | 39.11169 | 23.62649 | 5281 ft | 228 kts | 353° |
| 2026-04-26 10:48 | 39.12734 | 23.62419 | 4962 ft | 223 kts | 353° |
| 2026-04-26 10:48 | 39.14212 | 23.62201 | 4638 ft | 205 kts | 353° |
| 2026-04-26 10:48 | 39.15580 | 23.61995 | 4349 ft | 193 kts | 353° |
| 2026-04-26 10:48 | 39.16920 | 23.61796 | 4098 ft | 195 kts | 352° |
| 2026-04-26 10:49 | 39.18275 | 23.61581 | 3978 ft | 193 kts | 351° |
| 2026-04-26 10:49 | 39.19567 | 23.61360 | 3956 ft | 181 kts | 352° |
| 2026-04-26 10:49 | 39.20784 | 23.61151 | 4026 ft | 172 kts | 351° |
| 2026-04-26 10:49 | 39.21950 | 23.60954 | 4000 ft | 165 kts | 352° |
| 2026-04-26 10:50 | 39.23065 | 23.60778 | 3996 ft | 157 kts | 352° |
| 2026-04-26 10:50 | 39.23774 | 23.60651 | 3965 ft | 154 kts | 350° |
| 2026-04-26 10:50 | 39.25252 | 23.60369 | 3606 ft | 163 kts | 352° |
| 2026-04-26 10:50 | 39.26354 | 23.60203 | 3495 ft | 159 kts | 353° |
| 2026-04-26 10:51 | 39.27447 | 23.60079 | 3243 ft | 163 kts | 355° |
| 2026-04-26 10:51 | 39.29796 | 23.59928 | 2385 ft | 170 kts | 356° |
| 2026-04-26 10:51 | 39.30911 | 23.59636 | 2099 ft | 163 kts | 329° |
| 2026-04-26 10:52 | 39.31554 | 23.58510 | 1742 ft | 163 kts | 273° |
| 2026-04-26 10:52 | 39.31037 | 23.57346 | 1521 ft | 154 kts | 202° |
| 2026-04-26 10:52 | 39.30089 | 23.56863 | 1377 ft | 143 kts | 214° |
| 2026-04-26 10:52 | 39.29246 | 23.56092 | 1308 ft | 153 kts | 217° |
| 2026-04-26 10:53 | 39.28375 | 23.55272 | 1363 ft | 155 kts | 217° |
| 2026-04-26 10:53 | 39.27505 | 23.54478 | 1462 ft | 153 kts | 217° |
| 2026-04-26 10:53 | 39.26595 | 23.53754 | 1468 ft | 156 kts | 195° |
| 2026-04-26 10:54 | 39.24453 | 23.53324 | 1579 ft | 152 kts | 193° |
| 2026-04-26 10:54 | 39.23477 | 23.53030 | 1703 ft | 138 kts | 198° |
| 2026-04-26 10:54 | 39.22631 | 23.52647 | 1545 ft | 122 kts | 204° |
| 2026-04-26 10:54 | 39.21868 | 23.52220 | 1229 ft | 118 kts | 204° |
| 2026-04-26 10:55 | 39.21104 | 23.51875 | 944 ft | 115 kts | 200° |
| 2026-04-26 10:55 | 39.20353 | 23.51535 | 644 ft | 115 kts | 200° |
| 2026-04-26 10:55 | 39.19603 | 23.51189 | 419 ft | 114 kts | 198° |
| 2026-04-26 10:55 | 39.18849 | 23.50864 | 204 ft | 114 kts | 199° |
| 2026-04-26 10:56 | 39.18130 | 23.50547 | 45 ft | 95 kts | 199° |
| 2026-04-26 10:56 | 39.17847 | 23.50420 | 37 ft | 18 kts | 201° |
| 2026-04-26 10:56 | 39.17736 | 23.50369 | 38 ft | 16 kts | 197° |
| 2026-04-26 10:56 | 39.17699 | 23.50299 | 36 ft | 10 kts | 264° |
| 2026-04-26 10:57 | 39.17671 | 23.50214 | 33 ft | 7 kts | 286° |
| 2026-04-26 10:57 | 39.17687 | 23.50197 | 33 ft | 0 kts | 322° |